Terminal Aerodrome Forecast
Issued by NWS Tuscon, AZ

Current Version | Previous Version | Text Only | Print | Product List | Glossary On
Versions: 1 2 3 4 5 6 7 8 9 10 11 12 13 14 15 16 17
000
FTUS45 KTWC 032300
TAFTUS
TAF
KTUS 032320Z 0400/0424 30008KT P6SM BKN060
     FM040400 24005KT P6SM SCT040 BKN070
     FM040700 17004KT P6SM VCSH SCT030 BKN060
     FM041700 31005KT P6SM SCT050=

USA.gov is the U.S. government's official web portal to all federal, state and local government web resources and services.